createdAt,value
2017-12-23T00:01:26.370Z,68.93
2017-12-23T00:03:53.974Z,67.87
2017-12-23T00:06:21.635Z,73.20
2017-12-23T00:08:49.247Z,67.97
2017-12-23T00:11:16.907Z,58.90
2017-12-23T00:13:44.510Z,63.43
2017-12-23T00:16:12.119Z,72.40
2017-12-23T00:18:39.698Z,61.60
2017-12-23T00:21:07.380Z,66.50
2017-12-23T00:23:35.051Z,61.93
2017-12-23T00:26:02.715Z,73.40
2017-12-23T00:28:30.321Z,70.20
2017-12-23T00:30:57.995Z,63.13
2017-12-23T00:33:25.607Z,63.87
2017-12-23T00:35:53.210Z,56.40
2017-12-23T00:38:20.823Z,52.40
2017-12-23T00:40:48.484Z,57.03
2017-12-23T00:43:16.086Z,65.53
2017-12-23T00:45:43.759Z,65.63
2017-12-23T00:48:11.358Z,55.27
2017-12-23T00:50:38.966Z,65.20
2017-12-23T00:53:06.578Z,62.90
2017-12-23T00:55:34.182Z,62.03
2017-12-23T00:58:01.785Z,69.80
2017-12-23T01:00:29.463Z,56.73
2017-12-23T01:02:57.143Z,62.00
2017-12-23T01:05:24.754Z,56.33
2017-12-23T01:07:52.422Z,51.53
2017-12-23T01:10:20.027Z,64.30
2017-12-23T01:12:47.635Z,70.67
2017-12-23T01:15:15.250Z,56.63
2017-12-23T01:17:42.858Z,68.13
2017-12-23T01:20:10.470Z,63.13
2017-12-23T01:22:38.095Z,73.40
2017-12-23T01:25:05.706Z,61.03
2017-12-23T01:27:33.306Z,61.10
2017-12-23T01:30:00.979Z,55.83
2017-12-23T01:32:28.582Z,58.27
2017-12-23T01:34:56.190Z,50.23
2017-12-23T01:37:23.867Z,57.60
2017-12-23T01:39:51.466Z,50.90
2017-12-23T01:42:19.070Z,52.43
2017-12-23T01:44:46.683Z,55.00
2017-12-23T01:47:14.286Z,49.53
2017-12-23T01:49:41.894Z,60.67
2017-12-23T01:52:09.510Z,56.60
2017-12-23T01:54:37.114Z,62.10
2017-12-23T01:57:04.713Z,66.53
2017-12-23T01:59:32.334Z,62.93
2017-12-23T02:01:59.945Z,62.63
2017-12-23T02:04:27.551Z,60.33
2017-12-23T02:06:55.167Z,64.10
2017-12-23T02:09:22.838Z,50.00
2017-12-23T02:11:50.441Z,60.60
2017-12-23T02:14:18.054Z,49.57
2017-12-23T02:16:45.654Z,53.97
2017-12-23T02:19:13.261Z,49.70
2017-12-23T02:21:40.868Z,50.77
2017-12-23T02:24:08.527Z,56.80
2017-12-23T02:26:36.133Z,54.33
2017-12-23T02:29:03.806Z,53.93
2017-12-23T02:31:31.472Z,47.40
2017-12-23T02:33:59.078Z,47.47
2017-12-23T02:36:26.695Z,51.17
2017-12-23T02:38:54.303Z,46.67
2017-12-23T02:41:21.906Z,67.57
2017-12-23T02:43:49.587Z,62.37
2017-12-23T02:46:17.199Z,54.63
2017-12-23T02:48:44.859Z,52.07
2017-12-23T02:51:12.535Z,49.70
2017-12-23T02:53:40.149Z,49.70
2017-12-23T02:56:07.758Z,52.30
2017-12-23T02:58:35.430Z,52.10
2017-12-23T03:01:03.041Z,47.43
2017-12-23T03:03:30.641Z,55.50
2017-12-23T03:05:58.323Z,54.60
2017-12-23T03:08:25.930Z,111.00
2017-12-23T03:10:53.531Z,60.63
2017-12-23T03:13:21.199Z,53.60
2017-12-23T03:15:48.806Z,60.60
2017-12-23T03:18:16.410Z,102.97
2017-12-23T03:20:44.122Z,65.23
2017-12-23T03:23:11.780Z,88.37
2017-12-23T03:25:39.385Z,127.87
2017-12-23T03:28:07.041Z,99.67
2017-12-23T03:30:34.676Z,106.00
2017-12-23T03:33:02.278Z,81.07
2017-12-23T03:35:29.936Z,81.67
2017-12-23T03:37:57.545Z,72.00
2017-12-23T03:40:25.144Z,72.87
2017-12-23T03:42:52.798Z,99.40
2017-12-23T03:45:20.455Z,63.03
2017-12-23T03:47:48.055Z,51.60
2017-12-23T03:50:15.685Z,59.03
2017-12-23T03:52:43.294Z,61.13
2017-12-23T03:55:10.950Z,66.13
2017-12-23T03:57:38.630Z,60.43
2017-12-23T04:00:06.234Z,57.47
2017-12-23T04:02:33.896Z,58.07
2017-12-23T04:05:01.554Z,56.17
2017-12-23T04:07:29.215Z,54.90
2017-12-23T04:09:56.818Z,52.47
2017-12-23T04:12:24.479Z,58.20
2017-12-23T04:14:52.085Z,57.83
2017-12-23T04:17:19.681Z,60.93
2017-12-23T04:19:47.339Z,57.80
2017-12-23T04:22:14.956Z,60.07
2017-12-23T04:24:42.620Z,54.13
2017-12-23T04:27:10.339Z,58.77
2017-12-23T04:29:38.035Z,74.50
2017-12-23T04:32:05.642Z,65.63
2017-12-23T04:34:33.356Z,65.57
2017-12-23T04:37:01.017Z,68.60
2017-12-23T04:39:28.617Z,72.30
2017-12-23T04:41:56.322Z,61.80
2017-12-23T04:44:23.983Z,62.10
2017-12-23T04:46:51.589Z,57.97
2017-12-23T04:49:19.239Z,52.87
2017-12-23T04:51:46.898Z,66.20
2017-12-23T04:54:14.502Z,53.67
2017-12-23T04:56:42.218Z,52.20
2017-12-23T04:59:09.818Z,57.33
2017-12-23T05:01:37.479Z,55.87
2017-12-23T05:04:05.187Z,60.50
2017-12-23T05:06:32.847Z,59.90
2017-12-23T05:09:00.447Z,69.73
2017-12-23T05:11:28.107Z,191.00
2017-12-23T05:13:55.727Z,231.57
2017-12-23T05:16:23.330Z,84.97
2017-12-23T05:18:50.977Z,94.00
2017-12-23T05:21:18.575Z,80.97
2017-12-23T05:23:46.183Z,101.53
2017-12-23T05:26:13.842Z,131.13
2017-12-23T05:28:41.506Z,162.43
2017-12-23T05:31:09.219Z,139.97
2017-12-23T05:33:36.874Z,108.33
2017-12-23T05:36:04.490Z,122.23
2017-12-23T05:38:32.091Z,115.43
2017-12-23T05:40:59.751Z,105.63
2017-12-23T05:43:27.421Z,122.90
2017-12-23T05:45:55.023Z,117.73
2017-12-23T05:48:22.739Z,116.50
2017-12-23T05:50:50.346Z,113.57
2017-12-23T05:53:17.947Z,102.93
2017-12-23T05:55:45.658Z,86.50
2017-12-23T05:58:13.315Z,78.87
2017-12-23T06:00:40.931Z,90.20
2017-12-23T06:03:08.647Z,101.73
2017-12-23T06:05:36.255Z,91.43
2017-12-23T06:08:03.851Z,95.00
2017-12-23T06:10:31.502Z,92.37
2017-12-23T06:12:59.110Z,82.97
2017-12-23T06:15:26.763Z,72.37
2017-12-23T06:17:54.423Z,75.90
2017-12-23T06:20:22.079Z,70.67
2017-12-23T06:22:49.684Z,74.30
2017-12-23T06:25:17.335Z,71.67
2017-12-23T06:27:44.995Z,92.97
2017-12-23T06:30:12.660Z,75.63
2017-12-23T06:32:40.379Z,73.10
2017-12-23T06:35:07.987Z,69.93
2017-12-23T06:37:35.598Z,100.37
2017-12-23T06:40:03.255Z,96.40
2017-12-23T06:42:30.915Z,82.50
2017-12-23T06:44:58.510Z,83.93
2017-12-23T06:47:26.231Z,64.20
2017-12-23T06:49:53.860Z,49.77
2017-12-23T06:52:22.154Z,45.83
2017-12-23T06:54:49.774Z,49.90
2017-12-23T06:57:17.374Z,49.77
2017-12-23T06:59:44.978Z,60.90
2017-12-23T07:02:12.586Z,69.53
2017-12-23T07:04:40.248Z,58.60
2017-12-23T07:07:07.853Z,68.60
2017-12-23T07:09:35.582Z,63.70
2017-12-23T07:12:03.243Z,62.63
2017-12-23T07:14:30.875Z,68.73
2017-12-23T07:16:58.534Z,56.80
2017-12-23T07:19:26.142Z,47.50
2017-12-23T07:21:53.747Z,41.13
2017-12-23T07:24:21.465Z,37.23
2017-12-23T07:26:49.119Z,40.10
2017-12-23T07:29:16.714Z,42.73
2017-12-23T07:31:44.362Z,46.17
2017-12-23T07:34:11.969Z,43.67
2017-12-23T07:36:39.566Z,46.30
2017-12-23T07:39:07.259Z,48.83
2017-12-23T07:41:34.867Z,49.10
2017-12-23T07:44:02.475Z,66.17
2017-12-23T07:46:30.136Z,74.73
2017-12-23T07:48:57.745Z,76.30
2017-12-23T07:51:25.404Z,61.10
2017-12-23T07:53:53.071Z,70.97
2017-12-23T07:56:20.667Z,88.10
2017-12-23T07:58:48.410Z,95.20
2017-12-23T08:01:16.147Z,95.97
2017-12-23T08:03:43.803Z,103.83
2017-12-23T08:06:11.403Z,89.53
2017-12-23T08:08:39.052Z,76.37
2017-12-23T08:11:06.710Z,70.63
2017-12-23T08:13:34.309Z,65.73
2017-12-23T08:16:01.911Z,56.47
2017-12-23T08:18:29.506Z,80.73
2017-12-23T08:20:57.142Z,78.33
2017-12-23T08:23:24.858Z,70.90
2017-12-23T08:25:52.521Z,90.53
2017-12-23T08:28:20.182Z,106.57
2017-12-23T08:30:47.870Z,108.47
2017-12-23T08:33:15.507Z,105.80
2017-12-23T08:35:43.171Z,86.73
2017-12-23T08:38:10.842Z,111.05
2017-12-23T08:40:38.518Z,116.80
2017-12-23T08:43:06.122Z,106.10
2017-12-23T08:45:33.839Z,112.53
2017-12-23T08:48:01.446Z,116.73
2017-12-23T08:50:29.108Z,110.03
2017-12-23T08:52:56.766Z,102.67
2017-12-23T08:55:24.378Z,105.47
2017-12-23T08:57:51.975Z,93.17
2017-12-23T09:00:19.637Z,94.57
2017-12-23T09:02:47.389Z,85.33
2017-12-23T09:05:14.998Z,74.30
2017-12-23T09:07:42.740Z,82.77
2017-12-23T09:10:10.374Z,76.20
2017-12-23T09:12:38.032Z,44.80
2017-12-23T09:15:05.746Z,48.33
2017-12-23T09:17:33.421Z,36.60
2017-12-23T09:20:01.062Z,43.43
2017-12-23T09:22:28.802Z,35.03
2017-12-23T09:24:56.398Z,32.90
2017-12-23T09:27:23.991Z,37.67
2017-12-23T09:29:51.647Z,51.73
2017-12-23T09:32:19.254Z,42.93
2017-12-23T09:34:46.862Z,51.37
2017-12-23T09:37:14.574Z,55.30
2017-12-23T09:39:42.243Z,48.00
2017-12-23T09:42:09.898Z,40.67
2017-12-23T09:44:37.614Z,52.17
2017-12-23T09:47:05.210Z,47.63
2017-12-23T09:49:32.808Z,44.13
2017-12-23T09:52:00.454Z,29.80
2017-12-23T09:54:28.113Z,34.67
2017-12-23T09:56:55.771Z,50.40
2017-12-23T09:59:23.515Z,38.10
2017-12-23T10:01:51.173Z,38.93
2017-12-23T10:04:18.769Z,30.27
2017-12-23T10:06:46.419Z,53.53
2017-12-23T10:09:14.080Z,41.43
2017-12-23T10:11:41.682Z,39.40
2017-12-23T10:14:09.390Z,47.77
2017-12-23T10:16:37.041Z,45.57
2017-12-23T10:19:04.642Z,47.60
2017-12-23T10:21:32.322Z,26.07
2017-12-23T10:23:59.926Z,38.30
2017-12-23T10:26:27.526Z,33.43
2017-12-23T10:28:55.271Z,42.30
2017-12-23T10:31:22.866Z,60.53
2017-12-23T10:33:50.466Z,67.40
2017-12-23T10:36:18.118Z,52.07
2017-12-23T10:38:45.721Z,40.13
2017-12-23T10:41:13.353Z,44.63
2017-12-23T10:43:41.067Z,35.77
2017-12-23T10:46:08.731Z,32.20
2017-12-23T10:48:36.326Z,37.80
2017-12-23T10:51:04.031Z,37.33
2017-12-23T10:53:31.690Z,49.33
2017-12-23T10:55:59.350Z,28.23
2017-12-23T10:58:27.014Z,28.80
2017-12-23T11:00:54.678Z,30.67
2017-12-23T11:03:22.339Z,27.67
2017-12-23T11:05:49.999Z,33.27
2017-12-23T11:08:17.703Z,55.77
2017-12-23T11:10:45.307Z,52.47
2017-12-23T11:13:13.027Z,51.63
2017-12-23T11:15:40.630Z,39.17
2017-12-23T11:18:08.235Z,54.70
2017-12-23T11:20:35.886Z,61.77
2017-12-23T11:23:03.551Z,50.63
2017-12-23T11:25:31.214Z,78.77
2017-12-23T11:27:58.862Z,51.33
2017-12-23T11:30:26.455Z,56.00
2017-12-23T11:32:54.119Z,47.23
2017-12-23T11:35:21.774Z,57.23
2017-12-23T11:37:49.375Z,62.73
2017-12-23T11:40:16.975Z,53.40
2017-12-23T11:42:44.719Z,40.17
2017-12-23T11:45:12.338Z,57.60
2017-12-23T11:47:39.931Z,79.30
2017-12-23T11:50:07.586Z,46.50
2017-12-23T11:52:35.210Z,34.93
2017-12-23T11:55:02.876Z,43.97
2017-12-23T11:57:30.552Z,42.00
2017-12-23T11:59:58.171Z,37.37
2017-12-23T12:02:25.860Z,55.27
2017-12-23T12:04:53.574Z,52.20
2017-12-23T12:07:21.232Z,31.30
2017-12-23T12:09:48.905Z,39.00
2017-12-23T12:12:16.567Z,42.67
2017-12-23T12:14:44.232Z,44.70
2017-12-23T12:17:11.891Z,46.33
2017-12-23T12:19:39.552Z,52.30
2017-12-23T12:22:07.158Z,40.40
2017-12-23T12:24:34.814Z,57.13
2017-12-23T12:27:02.467Z,51.83
2017-12-23T12:29:30.067Z,64.23
2017-12-23T12:31:57.670Z,60.77
2017-12-23T12:34:25.388Z,62.10
2017-12-23T12:36:53.043Z,72.60
2017-12-23T12:39:20.702Z,91.67
2017-12-23T12:41:49.242Z,76.73
2017-12-23T12:44:16.914Z,61.73
2017-12-23T12:46:44.552Z,64.20
2017-12-23T12:49:12.168Z,55.97
2017-12-23T12:51:39.876Z,57.40
2017-12-23T12:54:07.478Z,54.17
2017-12-23T12:56:35.096Z,55.90
2017-12-23T12:59:02.699Z,64.20
2017-12-23T13:01:30.303Z,40.53
2017-12-23T13:03:57.910Z,47.30
2017-12-23T13:06:25.511Z,41.00
2017-12-23T13:08:53.116Z,41.00
2017-12-23T13:11:20.726Z,47.00
2017-12-23T13:13:48.326Z,34.77
2017-12-23T13:16:15.985Z,41.50
2017-12-23T13:18:43.644Z,53.37
2017-12-23T13:21:11.312Z,42.33
2017-12-23T13:23:38.910Z,59.53
2017-12-23T13:26:06.560Z,76.13
2017-12-23T13:28:34.159Z,78.67
2017-12-23T13:31:01.755Z,63.37
2017-12-23T13:33:29.413Z,40.10
2017-12-23T13:35:57.018Z,45.70
2017-12-23T13:38:24.622Z,44.87
2017-12-23T13:40:52.295Z,37.63
2017-12-23T13:43:19.955Z,54.40
2017-12-23T13:45:47.558Z,48.03
2017-12-23T13:48:15.227Z,49.60
2017-12-23T13:50:42.840Z,61.37
2017-12-23T13:53:10.446Z,62.83
2017-12-23T13:55:38.172Z,59.23
2017-12-23T13:58:05.770Z,57.63
2017-12-23T14:00:33.367Z,73.53
2017-12-23T14:03:01.019Z,77.57
2017-12-23T14:05:28.618Z,83.70
2017-12-23T14:07:56.219Z,87.83
2017-12-23T14:10:23.947Z,111.20
2017-12-23T14:12:51.616Z,103.63
2017-12-23T14:15:19.275Z,70.10
2017-12-23T14:17:46.923Z,76.67
2017-12-23T14:20:14.523Z,47.93
2017-12-23T14:22:42.123Z,49.60
2017-12-23T14:25:09.831Z,44.10
2017-12-23T14:27:37.434Z,63.03
2017-12-23T14:30:05.110Z,56.80
2017-12-23T14:32:32.767Z,57.00
2017-12-23T14:35:00.362Z,83.20
2017-12-23T14:37:28.027Z,59.80
2017-12-23T14:39:55.747Z,51.37
2017-12-23T14:42:23.414Z,54.13
2017-12-23T14:44:51.075Z,46.37
2017-12-23T14:47:18.783Z,60.77
2017-12-23T14:49:46.450Z,48.57
2017-12-23T14:52:14.163Z,50.63
2017-12-23T14:54:41.818Z,74.30
2017-12-23T14:57:09.423Z,47.40
2017-12-23T14:59:37.033Z,47.47
2017-12-23T15:02:04.771Z,50.87
2017-12-23T15:04:32.374Z,44.47
2017-12-23T15:06:59.973Z,59.33
2017-12-23T15:09:27.691Z,53.90
2017-12-23T15:11:55.298Z,50.20
2017-12-23T15:14:22.894Z,42.40
2017-12-23T15:16:50.635Z,40.80
2017-12-23T15:19:18.233Z,49.30
2017-12-23T15:21:45.894Z,50.57
2017-12-23T15:24:13.542Z,46.40
2017-12-23T15:26:41.144Z,57.47
2017-12-23T15:29:08.816Z,63.67
2017-12-23T15:31:36.526Z,70.20
2017-12-23T15:34:04.131Z,47.90
2017-12-23T15:36:31.730Z,44.23
2017-12-23T15:38:59.394Z,48.47
2017-12-23T15:41:26.999Z,73.33
2017-12-23T15:43:54.598Z,60.13
2017-12-23T15:46:22.315Z,962.97
2017-12-23T15:48:49.923Z,374.33
2017-12-23T15:51:17.531Z,196.27
2017-12-23T15:53:45.266Z,188.27
2017-12-23T15:56:12.876Z,560.30
2017-12-23T15:58:40.486Z,753.93
2017-12-23T16:01:08.155Z,499.90
2017-12-23T16:03:35.836Z,136.57
2017-12-23T16:06:03.430Z,83.77
2017-12-23T16:08:31.150Z,69.53
2017-12-23T16:10:58.815Z,59.23
2017-12-23T16:13:26.411Z,59.93
2017-12-23T16:15:54.098Z,39.90
2017-12-23T16:18:21.759Z,47.80
2017-12-23T16:20:49.363Z,44.93
2017-12-23T16:23:17.103Z,53.00
2017-12-23T16:25:44.706Z,55.63
2017-12-23T16:28:12.362Z,59.83
2017-12-23T16:30:40.043Z,57.07
2017-12-23T16:33:07.646Z,45.20
2017-12-23T16:35:35.312Z,36.23
2017-12-23T16:38:02.980Z,41.40
2017-12-23T16:40:30.649Z,46.63
2017-12-23T16:42:58.307Z,52.47
2017-12-23T16:45:26.054Z,54.07
2017-12-23T16:47:53.713Z,49.53
2017-12-23T16:50:21.376Z,36.40
2017-12-23T16:52:49.031Z,29.33
2017-12-23T16:55:16.635Z,40.47
2017-12-23T16:57:44.290Z,39.53
2017-12-23T17:00:11.939Z,26.63
2017-12-23T17:02:39.660Z,36.67
2017-12-23T17:05:07.380Z,39.00
2017-12-23T17:07:35.096Z,38.00
2017-12-23T17:10:02.706Z,41.97
2017-12-23T17:12:30.368Z,49.90
2017-12-23T17:14:58.088Z,44.60
2017-12-23T17:17:25.747Z,44.80
2017-12-23T17:19:53.346Z,38.77
2017-12-23T17:22:20.998Z,46.47
2017-12-23T17:24:48.655Z,42.97
2017-12-23T17:27:16.256Z,54.37
2017-12-23T17:29:55.575Z,52.83
2017-12-23T17:32:23.178Z,51.70
2017-12-23T17:34:50.778Z,57.03
2017-12-23T17:37:18.391Z,56.47
2017-12-23T17:39:45.995Z,53.47
2017-12-23T17:42:13.655Z,50.47
2017-12-23T17:44:41.314Z,53.40
2017-12-23T17:47:08.974Z,38.03
2017-12-23T17:49:36.578Z,56.80
2017-12-23T17:52:04.183Z,57.77
2017-12-23T17:54:31.850Z,45.93
2017-12-23T17:56:59.455Z,50.40
2017-12-23T17:59:27.053Z,57.17
2017-12-23T18:01:54.720Z,55.03
2017-12-23T18:04:22.295Z,71.93
2017-12-23T18:06:50.443Z,53.40
2017-12-23T18:09:18.047Z,53.93
2017-12-23T18:11:45.659Z,51.83
2017-12-23T18:14:13.271Z,42.40
2017-12-23T18:16:40.954Z,42.87
2017-12-23T18:19:08.671Z,57.80
2017-12-23T18:21:36.268Z,46.97
2017-12-23T18:24:03.931Z,47.50
2017-12-23T18:26:31.534Z,50.80
2017-12-23T18:28:59.135Z,49.43
2017-12-23T18:31:26.803Z,38.03
2017-12-23T18:33:54.459Z,45.90
2017-12-23T18:36:22.064Z,50.10
2017-12-23T18:38:49.734Z,51.00
2017-12-23T18:41:17.341Z,39.50
2017-12-23T18:43:45.064Z,37.07
2017-12-23T18:46:12.679Z,48.07
2017-12-23T18:48:40.363Z,41.67
2017-12-23T18:51:07.978Z,33.10
2017-12-23T18:53:35.583Z,35.47
2017-12-23T18:56:03.305Z,35.47
2017-12-23T18:58:30.924Z,40.83
2017-12-23T19:00:58.567Z,38.33
2017-12-23T19:03:26.236Z,40.50
2017-12-23T19:05:53.898Z,40.67
2017-12-23T19:08:21.547Z,37.20
2017-12-23T19:10:49.155Z,46.80
2017-12-23T19:13:16.819Z,37.30
2017-12-23T19:15:51.387Z,37.17
2017-12-23T19:18:18.987Z,38.20
2017-12-23T19:20:46.598Z,38.30
2017-12-23T19:23:14.255Z,37.67
2017-12-23T19:25:41.978Z,35.47
2017-12-23T19:28:09.783Z,43.23
2017-12-23T19:30:37.398Z,46.50
2017-12-23T19:33:05.015Z,43.90
2017-12-23T19:35:32.674Z,38.20
2017-12-23T19:38:00.350Z,30.70
2017-12-23T19:40:27.995Z,34.47
2017-12-23T19:42:55.706Z,35.90
2017-12-23T19:45:23.318Z,30.53
2017-12-23T19:47:50.978Z,35.37
2017-12-23T19:50:18.634Z,41.20
2017-12-23T19:52:46.239Z,34.90
2017-12-23T19:55:13.834Z,35.37
2017-12-23T19:57:41.502Z,41.63
2017-12-23T20:00:09.119Z,34.13
2017-12-23T20:02:36.835Z,42.07
2017-12-23T20:05:04.490Z,33.80
2017-12-23T20:07:32.091Z,36.63
2017-12-23T20:09:59.703Z,34.53
2017-12-23T20:12:27.302Z,37.30
2017-12-23T20:14:55.047Z,42.60
2017-12-23T20:17:22.674Z,26.27
2017-12-23T20:19:50.277Z,33.00
2017-12-23T20:22:17.899Z,41.50
2017-12-23T20:24:45.561Z,39.43
2017-12-23T20:27:13.304Z,35.80
2017-12-23T20:29:40.902Z,38.47
2017-12-23T20:32:08.537Z,36.73
2017-12-23T20:34:36.146Z,46.87
2017-12-23T20:37:03.746Z,44.63
2017-12-23T20:39:31.399Z,37.53
2017-12-23T20:41:59.054Z,47.77
2017-12-23T20:44:26.712Z,37.87
2017-12-23T20:46:54.383Z,38.43
2017-12-23T20:49:22.046Z,35.77
2017-12-23T20:51:49.699Z,44.60
2017-12-23T20:54:17.299Z,35.83
2017-12-23T20:56:44.903Z,37.57
2017-12-23T20:59:12.570Z,38.10
2017-12-23T21:01:40.231Z,43.03
2017-12-23T21:04:07.900Z,57.13
2017-12-23T21:06:35.558Z,47.40
2017-12-23T21:09:03.290Z,43.60
2017-12-23T21:11:30.956Z,43.33
2017-12-23T21:13:58.559Z,36.80
2017-12-23T21:16:26.240Z,36.23
2017-12-23T21:18:53.894Z,40.63
2017-12-23T21:21:21.552Z,35.37
2017-12-23T21:23:49.226Z,34.40
2017-12-23T21:26:16.823Z,33.93
2017-12-23T21:28:44.469Z,35.60
2017-12-23T21:31:12.063Z,34.90
2017-12-23T21:33:39.722Z,38.20
2017-12-23T21:36:07.391Z,32.80
2017-12-23T21:38:35.051Z,40.27
2017-12-23T21:41:02.702Z,46.13
2017-12-23T21:43:30.302Z,34.63
2017-12-23T21:45:57.902Z,38.67
2017-12-23T21:48:25.522Z,34.07
2017-12-23T21:50:53.202Z,33.60
2017-12-23T21:53:20.858Z,50.77
2017-12-23T21:55:48.455Z,59.33
2017-12-23T21:58:16.119Z,40.20
2017-12-23T22:00:43.731Z,45.63
2017-12-23T22:03:11.330Z,42.80
2017-12-23T22:05:38.991Z,32.43
2017-12-23T22:08:06.599Z,39.77
2017-12-23T22:10:34.200Z,39.53
2017-12-23T22:13:01.868Z,41.20
2017-12-23T22:15:29.468Z,38.10
2017-12-23T22:17:57.182Z,44.20
2017-12-23T22:20:24.786Z,38.60
2017-12-23T22:22:52.385Z,35.30
2017-12-23T22:25:19.995Z,40.07
2017-12-23T22:27:47.654Z,39.20
2017-12-23T22:30:15.375Z,46.63
2017-12-23T22:32:42.978Z,42.63
2017-12-23T22:35:10.643Z,32.30
2017-12-23T22:37:38.340Z,32.60
2017-12-23T22:40:05.946Z,40.83
2017-12-23T22:42:34.602Z,43.10
2017-12-23T22:45:02.263Z,32.37
2017-12-23T22:47:29.858Z,31.17
2017-12-23T22:49:57.476Z,38.87
2017-12-23T22:52:25.166Z,34.50
2017-12-23T22:54:52.879Z,41.33
2017-12-23T22:57:20.479Z,32.17
2017-12-23T22:59:48.144Z,34.07
2017-12-23T23:02:15.814Z,30.33
2017-12-23T23:04:43.418Z,35.93
2017-12-23T23:07:11.131Z,32.63
2017-12-23T23:09:38.730Z,31.13
2017-12-23T23:12:06.330Z,34.33
2017-12-23T23:14:33.939Z,31.67
2017-12-23T23:17:01.534Z,31.97
2017-12-23T23:19:29.194Z,37.83
2017-12-23T23:21:56.794Z,40.70
2017-12-23T23:24:24.452Z,37.53
2017-12-23T23:26:52.059Z,36.17
2017-12-23T23:29:19.723Z,31.27
2017-12-23T23:31:47.378Z,38.03
2017-12-23T23:34:14.982Z,33.37
2017-12-23T23:36:42.581Z,29.60
2017-12-23T23:39:10.251Z,30.23
2017-12-23T23:41:37.850Z,29.33
2017-12-23T23:44:05.567Z,31.60
2017-12-23T23:46:33.178Z,38.60
2017-12-23T23:49:00.783Z,27.60
2017-12-23T23:51:28.390Z,36.17
2017-12-23T23:53:56.048Z,39.03
2017-12-23T23:56:23.687Z,32.43
2017-12-23T23:58:51.338Z,33.67
